Time;durP1;ratioP1;P1;durP2;ratioP2;P2;SDS_P1;SDS_P2;PMS_P1;PMS_P2;Temp;Humidity;BMP_temperature;BMP_pressure;BME280_temperature;BME280_humidity;BME280_pressure;Samples;Min_cycle;Max_cycle;Signal;HPM_P1;HPM_P2
2022/08/28 00:00:46;;;;;;;14.20;12.87;;;18.60;99.90;;;;;;5072725;28;20205;-53
2022/08/28 00:03:14;;;;;;;14.47;13.07;;;18.60;99.90;;;;;;5074227;28;20201;-53
2022/08/28 00:05:42;;;;;;;13.67;11.73;;;18.60;99.90;;;;;;5065447;28;20876;-53
2022/08/28 00:08:14;;;;;;;12.93;11.63;;;18.60;99.90;;;;;;5073243;28;20193;-53
2022/08/28 00:10:41;;;;;;;15.77;14.27;;;18.60;99.90;;;;;;5073139;28;20251;-53
2022/08/28 00:13:17;;;;;;;16.53;15.03;;;18.50;99.90;;;;;;5066206;28;20193;-53
2022/08/28 00:15:48;;;;;;;14.10;12.70;;;18.50;99.90;;;;;;5073268;28;20686;-53
2022/08/28 00:18:16;;;;;;;15.53;13.87;;;18.40;99.90;;;;;;5074064;28;20205;-53
2022/08/28 00:20:43;;;;;;;15.00;13.33;;;18.40;99.90;;;;;;5071703;28;20239;-53
2022/08/28 00:23:12;;;;;;;13.67;12.27;;;18.40;99.90;;;;;;5066027;28;20243;-53
2022/08/28 00:25:40;;;;;;;15.47;12.83;;;18.30;99.90;;;;;;5071754;28;20250;-53
2022/08/28 00:28:08;;;;;;;13.87;12.57;;;18.30;99.90;;;;;;5068194;28;20201;-53
2022/08/28 00:30:38;;;;;;;12.20;11.00;;;18.30;99.90;;;;;;5072998;28;20312;-53
2022/08/28 00:33:16;;;;;;;15.10;13.47;;;18.20;99.90;;;;;;5066296;28;20201;-53
2022/08/28 00:35:44;;;;;;;14.23;12.60;;;18.20;99.90;;;;;;5071126;28;20223;-53
2022/08/28 00:38:12;;;;;;;12.97;11.77;;;18.20;99.90;;;;;;5072661;28;20997;-53
2022/08/28 00:40:41;;;;;;;14.60;11.77;;;18.20;99.90;;;;;;5071918;28;20201;-53
2022/08/28 00:43:13;;;;;;;12.23;11.13;;;18.20;99.90;;;;;;5072891;28;20548;-53
2022/08/28 00:45:40;;;;;;;11.37;10.27;;;18.20;99.90;;;;;;5071975;28;20296;-53
2022/08/28 00:48:11;;;;;;;11.73;10.67;;;18.20;99.90;;;;;;5072791;28;20200;-53
2022/08/28 00:53:24;;;;;;;14.57;12.77;;;18.20;99.90;;;;;;5072312;28;20211;-53
2022/08/28 00:55:52;;;;;;;13.30;12.00;;;18.20;99.90;;;;;;5071742;28;20224;-53
2022/08/28 00:58:20;;;;;;;14.17;12.63;;;18.20;99.90;;;;;;5072262;28;20205;-52
2022/08/28 01:00:47;;;;;;;11.23;10.33;;;18.20;99.90;;;;;;5065687;28;20292;-53
2022/08/28 01:03:14;;;;;;;11.03;10.13;;;18.10;99.90;;;;;;5072849;28;20193;-53
2022/08/28 01:05:45;;;;;;;12.53;11.03;;;18.10;99.90;;;;;;5069184;28;20263;-53
2022/08/28 01:08:12;;;;;;;12.13;11.03;;;18.00;99.90;;;;;;5071641;28;20247;-53
2022/08/28 01:10:43;;;;;;;11.90;10.73;;;18.00;99.90;;;;;;5071503;28;20221;-53
2022/08/28 01:13:10;;;;;;;10.40;9.50;;;17.90;99.90;;;;;;5067771;28;20717;-53
2022/08/28 01:15:41;;;;;;;11.47;10.37;;;17.90;99.90;;;;;;5070249;28;20213;-53
2022/08/28 01:18:14;;;;;;;12.13;11.00;;;17.90;99.90;;;;;;5063455;28;20972;-53
2022/08/28 01:20:49;;;;;;;12.10;10.87;;;17.80;99.90;;;;;;5065822;28;20221;-53
2022/08/28 01:23:24;;;;;;;12.77;11.47;;;17.80;99.90;;;;;;5072691;28;20258;-53
2022/08/28 01:25:53;;;;;;;11.00;10.00;;;17.80;99.90;;;;;;5066441;28;20225;-53
2022/08/28 01:28:20;;;;;;;11.60;10.60;;;17.70;99.90;;;;;;5070941;28;20204;-53
2022/08/28 01:30:48;;;;;;;12.90;10.83;;;17.70;99.90;;;;;;5063280;28;20248;-53
2022/08/28 01:33:16;;;;;;;13.67;12.37;;;17.70;99.90;;;;;;5072445;28;20197;-53
2022/08/28 01:35:46;;;;;;;12.43;11.33;;;17.70;99.90;;;;;;5072665;28;20221;-53
2022/08/28 01:38:15;;;;;;;13.30;11.90;;;17.70;99.90;;;;;;5071621;28;20203;-53
2022/08/28 01:40:45;;;;;;;12.23;11.13;;;17.70;99.90;;;;;;5076400;28;20185;-53
2022/08/28 01:43:16;;;;;;;12.97;11.77;;;17.70;99.90;;;;;;5092641;28;20344;-53
2022/08/28 01:45:46;;;;;;;15.77;14.07;;;17.70;99.90;;;;;;5092337;28;20583;-53
2022/08/28 01:48:14;;;;;;;14.07;12.77;;;17.60;99.90;;;;;;5072289;28;20282;-53
2022/08/28 01:50:43;;;;;;;14.33;12.83;;;17.60;99.90;;;;;;5072000;28;20210;-53
2022/08/28 01:53:14;;;;;;;11.40;10.17;;;17.60;99.90;;;;;;5072180;28;20262;-53
2022/08/28 01:55:42;;;;;;;12.13;11.03;;;17.60;99.90;;;;;;5072340;28;20645;-53
2022/08/28 01:58:13;;;;;;;11.67;10.67;;;17.60;99.90;;;;;;5071241;28;20258;-53
2022/08/28 02:00:42;;;;;;;12.27;11.07;;;17.50;99.90;;;;;;5072080;28;20193;-53
2022/08/28 02:03:11;;;;;;;11.13;10.03;;;17.60;99.90;;;;;;5072067;28;20286;-53
2022/08/28 02:05:39;;;;;;;13.63;12.30;;;17.60;99.90;;;;;;5055559;28;20225;-53
2022/08/28 02:08:07;;;;;;;15.80;12.47;;;17.60;99.90;;;;;;5056154;28;20285;-53
2022/08/28 02:10:37;;;;;;;13.43;12.13;;;17.60;99.90;;;;;;5071997;28;20245;-53
2022/08/28 02:13:05;;;;;;;12.13;11.13;;;17.60;99.90;;;;;;5072209;28;20627;-53
2022/08/28 02:15:34;;;;;;;12.40;11.27;;;17.60;99.90;;;;;;5072297;28;20290;-53
2022/08/28 02:18:03;;;;;;;11.50;10.40;;;17.50;99.90;;;;;;5071889;28;20266;-53
2022/08/28 02:20:30;;;;;;;12.63;11.13;;;17.50;99.90;;;;;;5062021;28;20251;-53
2022/08/28 02:22:58;;;;;;;13.00;11.77;;;17.50;99.90;;;;;;5061899;28;20223;-53
2022/08/28 02:25:26;;;;;;;13.87;12.40;;;17.50;99.90;;;;;;5064891;28;21406;-53
2022/08/28 02:27:53;;;;;;;12.83;11.57;;;17.50;99.90;;;;;;5051977;28;20194;-53
2022/08/28 02:30:21;;;;;;;12.23;11.13;;;17.40;99.90;;;;;;5059445;28;20217;-53
2022/08/28 02:32:48;;;;;;;12.03;11.00;;;17.40;99.90;;;;;;5057910;28;20229;-53
2022/08/28 02:35:17;;;;;;;13.07;11.77;;;17.40;99.90;;;;;;5051800;28;20229;-53
2022/08/28 02:37:45;;;;;;;13.63;12.27;;;17.30;99.90;;;;;;5061323;28;20205;-53
2022/08/28 02:40:14;;;;;;;13.93;12.43;;;17.30;99.90;;;;;;5061800;28;20663;-53
2022/08/28 02:42:41;;;;;;;12.97;11.57;;;17.30;99.90;;;;;;5051713;28;20622;-53
2022/08/28 02:45:09;;;;;;;15.13;12.73;;;17.30;99.90;;;;;;5051408;28;20582;-53
2022/08/28 02:47:36;;;;;;;15.80;13.67;;;17.30;99.90;;;;;;5051933;28;20638;-53
2022/08/28 02:50:04;;;;;;;12.80;11.53;;;17.30;99.90;;;;;;5061531;28;20667;-53
2022/08/28 02:52:32;;;;;;;13.40;12.00;;;17.30;99.90;;;;;;5070372;28;20292;-53
2022/08/28 02:54:59;;;;;;;11.97;10.97;;;17.20;99.90;;;;;;5067462;28;20221;-53
2022/08/28 02:57:26;;;;;;;15.83;14.20;;;17.20;99.90;;;;;;5061952;28;20638;-53
2022/08/28 02:59:53;;;;;;;13.43;12.03;;;17.20;99.90;;;;;;5074218;28;20262;-53
2022/08/28 03:02:20;;;;;;;13.13;11.97;;;17.20;99.90;;;;;;5074579;28;20197;-53
2022/08/28 03:04:48;;;;;;;14.20;12.63;;;17.10;99.90;;;;;;5074120;28;20242;-53
2022/08/28 03:07:15;;;;;;;13.03;11.83;;;17.10;99.90;;;;;;5055568;28;20300;-53
2022/08/28 03:09:44;;;;;;;14.50;13.00;;;17.10;99.90;;;;;;5055618;28;20271;-53
2022/08/28 03:12:13;;;;;;;12.23;11.13;;;17.00;99.90;;;;;;5059342;28;20275;-53
2022/08/28 03:14:41;;;;;;;12.27;11.07;;;17.00;99.90;;;;;;5073292;28;20255;-53
2022/08/28 03:17:08;;;;;;;13.47;12.17;;;17.00;99.90;;;;;;5074184;28;20221;-52
2022/08/28 03:19:35;;;;;;;12.93;11.73;;;17.00;99.90;;;;;;5073924;28;20202;-53
2022/08/28 03:22:03;;;;;;;12.87;11.57;;;17.00;99.90;;;;;;5058090;28;20205;-53
2022/08/28 03:24:29;;;;;;;12.77;11.53;;;17.10;99.90;;;;;;5062171;28;20224;-53
2022/08/28 03:27:00;;;;;;;13.63;12.27;;;17.20;99.90;;;;;;5068537;28;20221;-53
2022/08/28 03:29:27;;;;;;;11.80;10.70;;;17.20;99.90;;;;;;5061642;28;20225;-53
2022/08/28 03:31:54;;;;;;;13.87;12.47;;;17.20;99.90;;;;;;5057191;28;20243;-53
2022/08/28 03:34:21;;;;;;;14.13;12.63;;;17.10;99.90;;;;;;5054929;28;20190;-54
2022/08/28 03:36:48;;;;;;;13.70;12.33;;;17.00;99.90;;;;;;5054852;28;20222;-53
2022/08/28 03:39:15;;;;;;;12.17;10.97;;;17.00;99.90;;;;;;5054931;28;20205;-53
2022/08/28 03:41:42;;;;;;;11.73;10.53;;;17.00;99.90;;;;;;5055150;28;20213;-53
2022/08/28 03:44:11;;;;;;;15.10;11.63;;;16.90;99.90;;;;;;5067726;28;20282;-53
2022/08/28 03:46:39;;;;;;;12.07;10.90;;;16.80;99.90;;;;;;5072633;28;20707;-53
2022/08/28 03:49:06;;;;;;;12.40;11.23;;;16.80;99.90;;;;;;5057999;28;20660;-53
2022/08/28 03:51:34;;;;;;;11.73;10.63;;;16.70;99.90;;;;;;5054803;28;20206;-53
2022/08/28 03:54:03;;;;;;;11.63;10.57;;;16.70;99.90;;;;;;5054535;28;20578;-53
2022/08/28 03:56:31;;;;;;;12.87;11.17;;;16.70;99.90;;;;;;5054765;28;20263;-53
2022/08/28 03:59:03;;;;;;;12.90;11.67;;;16.70;99.90;;;;;;5054619;28;20209;-53
2022/08/28 04:01:32;;;;;;;13.13;11.93;;;16.70;99.90;;;;;;5069914;28;20272;-53
2022/08/28 04:03:59;;;;;;;12.50;11.30;;;16.80;99.90;;;;;;5072188;28;20210;-54
2022/08/28 04:06:27;;;;;;;12.77;11.33;;;16.80;99.90;;;;;;5054831;28;20221;-53
2022/08/28 04:08:55;;;;;;;11.10;10.13;;;16.80;99.90;;;;;;5054285;28;20252;-53
2022/08/28 04:11:22;;;;;;;13.57;12.17;;;16.80;99.90;;;;;;5054461;28;20301;-53
2022/08/28 04:13:49;;;;;;;12.57;11.43;;;16.80;99.90;;;;;;5054266;28;20293;-53
2022/08/28 04:16:18;;;;;;;14.83;12.90;;;16.80;99.90;;;;;;5054362;28;20237;-53
2022/08/28 04:18:48;;;;;;;11.60;10.53;;;16.70;99.90;;;;;;5054871;28;20194;-53
2022/08/28 04:21:17;;;;;;;13.10;11.63;;;16.70;99.90;;;;;;5061518;28;20201;-53
2022/08/28 04:23:45;;;;;;;17.20;13.20;;;16.70;99.90;;;;;;5069394;28;20204;-58
2022/08/28 04:26:16;;;;;;;13.83;12.43;;;16.70;99.90;;;;;;5054331;28;20225;-53
2022/08/28 04:28:43;;;;;;;14.47;13.10;;;16.70;99.90;;;;;;5054313;28;20243;-53
2022/08/28 04:31:10;;;;;;;13.90;12.53;;;16.70;99.90;;;;;;5071235;28;20305;-53
2022/08/28 04:33:38;;;;;;;13.57;11.40;;;16.80;99.90;;;;;;5060742;28;20198;-53
2022/08/28 04:36:09;;;;;;;12.83;11.53;;;16.80;99.90;;;;;;5053804;28;20214;-52
2022/08/28 04:38:37;;;;;;;11.90;10.80;;;16.70;99.90;;;;;;5064933;28;20292;-53
2022/08/28 04:41:04;;;;;;;13.47;11.87;;;16.70;99.90;;;;;;5055282;28;20190;-53
2022/08/28 04:43:32;;;;;;;10.63;9.70;;;16.60;99.90;;;;;;5053627;28;20294;-53
2022/08/28 04:45:59;;;;;;;10.90;9.83;;;16.60;99.90;;;;;;5053548;28;20788;-53
2022/08/28 04:48:26;;;;;;;12.43;11.30;;;16.60;99.90;;;;;;5055175;28;20229;-53
2022/08/28 04:50:53;;;;;;;11.10;10.03;;;16.50;99.90;;;;;;5072380;28;20232;-53
2022/08/28 04:53:21;;;;;;;13.50;12.27;;;16.50;99.90;;;;;;5072412;28;20235;-53
2022/08/28 04:55:50;;;;;;;11.30;10.27;;;16.50;99.90;;;;;;5060699;28;20788;-53
2022/08/28 04:58:18;;;;;;;12.27;11.10;;;16.40;99.90;;;;;;5069119;28;20210;-52
2022/08/28 05:00:47;;;;;;;11.60;10.50;;;16.40;99.90;;;;;;5072206;28;20250;-53
2022/08/28 05:03:16;;;;;;;10.67;9.73;;;16.40;99.90;;;;;;5072527;28;20266;-53
2022/08/28 05:05:44;;;;;;;13.43;12.13;;;16.40;99.90;;;;;;5072016;28;20213;-52
2022/08/28 05:08:12;;;;;;;11.97;10.73;;;16.40;99.90;;;;;;5072086;28;20570;-53
2022/08/28 05:10:41;;;;;;;12.60;11.30;;;16.40;99.90;;;;;;5071621;28;20250;-53
2022/08/28 05:13:11;;;;;;;10.97;9.97;;;16.40;99.90;;;;;;5060696;28;20266;-53
2022/08/28 05:15:39;;;;;;;13.77;12.47;;;16.50;99.90;;;;;;5072144;28;20232;-53
2022/08/28 05:18:06;;;;;;;13.97;12.63;;;16.60;99.90;;;;;;5072028;28;20287;-53
2022/08/28 05:20:36;;;;;;;10.33;9.50;;;16.70;99.90;;;;;;5055265;28;20225;-53
2022/08/28 05:23:04;;;;;;;12.63;11.43;;;16.80;99.90;;;;;;5052716;28;20670;-52
2022/08/28 05:25:33;;;;;;;9.30;8.50;;;17.00;99.90;;;;;;5059878;28;20214;-53
2022/08/28 05:28:02;;;;;;;11.63;10.47;;;17.10;99.90;;;;;;5056477;28;20262;-53
2022/08/28 05:30:29;;;;;;;10.77;9.77;;;17.30;99.90;;;;;;5060852;28;20202;-53
2022/08/28 05:32:56;;;;;;;9.87;8.67;;;17.50;99.90;;;;;;5052632;28;20220;-52
2022/08/28 05:35:23;;;;;;;9.57;8.67;;;17.80;99.90;;;;;;5052549;28;20214;-53
2022/08/28 05:37:52;;;;;;;11.03;10.07;;;18.00;99.90;;;;;;5063484;28;20782;-53
2022/08/28 05:40:21;;;;;;;10.43;9.63;;;18.40;99.90;;;;;;5057926;28;20196;-53
2022/08/28 05:42:48;;;;;;;11.57;10.47;;;18.70;99.90;;;;;;5069146;28;20230;-53
2022/08/28 05:45:16;;;;;;;10.67;9.67;;;18.80;99.90;;;;;;5069638;28;20240;-53
2022/08/28 05:47:44;;;;;;;9.80;9.00;;;18.90;99.90;;;;;;5059203;28;20611;-53
2022/08/28 05:50:12;;;;;;;10.27;9.27;;;19.20;99.90;;;;;;5052936;28;20667;-53
2022/08/28 05:52:40;;;;;;;11.33;9.17;;;19.70;99.90;;;;;;5070079;28;20298;-53
2022/08/28 05:55:08;;;;;;;10.57;9.10;;;20.10;99.90;;;;;;5064281;28;20612;-53
2022/08/28 05:57:35;;;;;;;9.43;8.63;;;20.30;99.90;;;;;;5072076;28;20197;-53
2022/08/28 06:00:03;;;;;;;9.70;8.90;;;20.20;99.90;;;;;;5067235;28;20239;-53
2022/08/28 06:02:33;;;;;;;7.93;7.37;;;20.20;99.90;;;;;;5070426;28;20201;-53
2022/08/28 06:05:00;;;;;;;10.10;9.30;;;20.20;99.90;;;;;;5055861;28;20285;-53
2022/08/28 06:07:27;;;;;;;10.43;9.53;;;20.30;99.90;;;;;;5052057;28;20206;-53
2022/08/28 06:09:54;;;;;;;11.63;10.53;;;20.30;99.90;;;;;;5052348;28;20198;-53
2022/08/28 06:12:21;;;;;;;12.77;11.67;;;20.50;99.90;;;;;;5068073;28;20697;-53
2022/08/28 06:14:48;;;;;;;11.47;10.57;;;21.00;99.90;;;;;;5070753;28;20189;-53
2022/08/28 06:17:15;;;;;;;10.07;9.30;;;21.50;99.90;;;;;;5066840;28;20217;-53
2022/08/28 06:19:43;;;;;;;11.03;10.10;;;22.40;99.90;;;;;;5065153;28;20209;-53
2022/08/28 06:22:13;;;;;;;9.70;8.97;;;23.30;99.90;;;;;;5054553;28;20229;-53
2022/08/28 06:24:41;;;;;;;9.60;8.87;;;23.80;99.90;;;;;;5060601;28;20197;-53
2022/08/28 06:27:08;;;;;;;10.07;9.27;;;24.50;99.90;;;;;;5067095;28;20217;-53
2022/08/28 06:29:35;;;;;;;9.83;9.07;;;25.00;99.90;;;;;;5052325;28;20594;-53
2022/08/28 06:32:03;;;;;;;11.80;10.70;;;25.30;99.90;;;;;;5051257;28;20220;-53
2022/08/28 06:34:30;;;;;;;10.57;9.67;;;25.50;99.90;;;;;;5051382;28;20285;-53
2022/08/28 06:36:59;;;;;;;11.50;10.60;;;25.70;99.90;;;;;;5062214;28;20225;-53
2022/08/28 06:39:26;;;;;;;10.17;9.40;;;26.00;99.90;;;;;;5052369;28;20606;-53
2022/08/28 06:41:54;;;;;;;11.37;10.37;;;25.90;99.90;;;;;;5055332;28;20193;-53
2022/08/28 06:44:22;;;;;;;11.90;10.90;;;26.20;99.90;;;;;;5070331;28;20457;-53
2022/08/28 06:46:51;;;;;;;9.70;8.90;;;26.00;99.90;;;;;;5068920;28;20263;-53
2022/08/28 06:49:19;;;;;;;10.20;9.43;;;25.60;99.90;;;;;;5055469;28;20198;-53
2022/08/28 06:51:46;;;;;;;8.95;8.25;;;25.20;99.90;;;;;;5051661;28;20217;-53
2022/08/28 06:54:16;;;;;;;10.47;9.67;;;24.60;99.90;;;;;;5062697;28;20193;-53
2022/08/28 06:56:45;;;;;;;10.60;9.80;;;24.50;99.90;;;;;;5051854;28;20782;-53
2022/08/28 06:59:12;;;;;;;12.43;11.23;;;24.10;99.90;;;;;;5051458;28;20392;-53
2022/08/28 07:01:39;;;;;;;11.20;10.10;;;23.70;99.90;;;;;;5051510;28;20227;-53
2022/08/28 07:04:08;;;;;;;8.70;8.00;;;23.20;99.90;;;;;;5051489;28;20271;-53
2022/08/28 07:06:38;;;;;;;8.70;8.10;;;22.70;99.90;;;;;;5054692;28;20872;-53
2022/08/28 07:09:06;;;;;;;9.80;9.03;;;22.50;99.90;;;;;;5052154;28;20198;-53
2022/08/28 07:11:35;;;;;;;10.50;9.17;;;22.50;99.90;;;;;;5069069;28;20616;-53
2022/08/28 07:14:03;;;;;;;11.13;8.70;;;22.80;99.90;;;;;;5068524;28;20205;-53
2022/08/28 07:16:32;;;;;;;9.33;8.63;;;22.90;99.90;;;;;;5067263;28;20221;-53
2022/08/28 07:19:01;;;;;;;9.13;8.33;;;22.90;99.90;;;;;;5068263;28;20202;-53
2022/08/28 07:21:29;;;;;;;9.70;8.93;;;23.10;99.90;;;;;;5066511;28;20201;-53
2022/08/28 07:23:57;;;;;;;9.80;9.00;;;23.10;99.90;;;;;;5062226;28;20675;-53
2022/08/28 07:26:26;;;;;;;9.50;8.80;;;22.70;99.90;;;;;;5061686;28;20260;-53
2022/08/28 07:28:55;;;;;;;9.37;8.47;;;22.70;99.90;;;;;;5067953;28;20240;-53
2022/08/28 07:31:25;;;;;;;9.57;8.87;;;22.70;99.90;;;;;;5058665;28;20254;-53
2022/08/28 07:33:53;;;;;;;10.50;9.63;;;22.50;99.90;;;;;;5053348;28;20250;-53
2022/08/28 07:36:22;;;;;;;9.60;8.90;;;22.70;99.90;;;;;;5063205;28;20364;-53
2022/08/28 07:38:50;;;;;;;7.67;7.13;;;22.80;99.90;;;;;;5053838;28;20201;-53
2022/08/28 07:41:18;;;;;;;9.13;8.43;;;23.30;99.90;;;;;;5053577;28;20634;-52
2022/08/28 07:46:32;;;;;;;8.37;7.77;;;24.20;99.90;;;;;;5060471;28;20271;-53
2022/08/28 07:49:00;;;;;;;7.17;6.63;;;24.90;99.90;;;;;;5060835;28;20198;-52
2022/08/28 07:51:28;;;;;;;8.93;8.20;;;25.70;99.90;;;;;;5060470;28;20208;-52
2022/08/28 07:53:56;;;;;;;7.93;7.23;;;26.70;99.90;;;;;;5064461;28;20291;-53
2022/08/28 07:56:24;;;;;;;9.23;8.47;;;27.30;99.90;;;;;;5063880;28;20217;-53
2022/08/28 07:58:52;;;;;;;8.30;7.50;;;27.80;99.90;;;;;;5073181;28;20209;-53
2022/08/28 08:01:19;;;;;;;6.17;5.57;;;28.30;99.90;;;;;;5072070;28;20197;-53
2022/08/28 08:03:47;;;;;;;6.70;6.40;;;27.80;99.90;;;;;;5069416;28;20789;-53
2022/08/28 08:06:15;;;;;;;6.78;6.10;;;27.50;99.90;;;;;;5065073;28;20219;-53
2022/08/28 08:08:44;;;;;;;8.65;7.95;;;27.70;99.90;;;;;;5071705;28;20209;-53
2022/08/28 08:11:13;;;;;;;6.93;6.53;;;28.10;99.90;;;;;;5064142;28;20212;-53
2022/08/28 08:13:40;;;;;;;6.70;6.30;;;28.40;99.90;;;;;;5059923;28;20213;-53
2022/08/28 08:16:10;;;;;;;9.40;8.63;;;28.40;99.90;;;;;;5057497;28;21051;-53
2022/08/28 08:18:37;;;;;;;6.90;6.28;;;28.90;99.90;;;;;;5063403;28;20189;-53
2022/08/28 08:21:08;;;;;;;7.38;6.75;;;28.80;99.90;;;;;;5070275;28;20203;-53
2022/08/28 08:23:36;;;;;;;8.98;8.35;;;28.50;99.90;;;;;;5067381;28;20212;-53
2022/08/28 08:26:05;;;;;;;8.23;7.63;;;28.90;99.90;;;;;;5066901;28;20221;-53
2022/08/28 08:28:34;;;;;;;7.60;7.03;;;28.00;99.90;;;;;;5072194;28;20582;-53
2022/08/28 08:31:06;;;;;;;9.18;8.38;;;28.60;99.90;;;;;;5053595;28;20667;-53
2022/08/28 08:33:33;;;;;;;7.57;7.07;;;29.20;99.90;;;;;;5058496;28;20252;-53
2022/08/28 08:36:01;;;;;;;9.15;8.25;;;29.20;99.90;;;;;;5066074;28;20212;-54
2022/08/28 08:38:30;;;;;;;8.38;7.75;;;29.00;99.90;;;;;;5055805;28;20201;-53
2022/08/28 08:41:00;;;;;;;6.82;6.40;;;28.50;99.90;;;;;;5059559;28;20205;-53
2022/08/28 08:43:30;;;;;;;8.85;8.15;;;27.80;99.90;;;;;;5061672;28;20272;-53
2022/08/28 08:45:57;;;;;;;9.20;8.35;;;27.20;99.90;;;;;;5060400;28;20221;-53
2022/08/28 08:48:30;;;;;;;8.15;7.45;;;27.50;99.90;;;;;;5063638;28;20202;-53
2022/08/28 08:51:03;;;;;;;7.78;6.93;;;27.00;99.90;;;;;;5054552;28;20270;-53
2022/08/28 08:53:36;;;;;;;8.25;7.65;;;27.00;99.90;;;;;;5060485;28;20248;-53
2022/08/28 08:56:05;;;;;;;9.07;8.40;;;26.50;99.90;;;;;;5053491;28;20227;-53
2022/08/28 08:58:37;;;;;;;8.20;7.68;;;27.10;99.90;;;;;;5068254;28;20263;-53
2022/08/28 09:01:09;;;;;;;8.65;8.05;;;27.90;99.90;;;;;;5071294;28;20281;-53
2022/08/28 09:03:49;;;;;;;8.30;7.57;;;28.50;99.90;;;;;;5070550;28;20231;-52
2022/08/28 09:06:22;;;;;;;8.38;7.70;;;28.40;99.90;;;;;;5066985;28;20270;-53
2022/08/28 09:08:56;;;;;;;9.55;8.85;;;27.80;99.90;;;;;;5071435;28;20238;-52
2022/08/28 09:11:36;;;;;;;8.80;8.10;;;26.80;99.90;;;;;;5066927;28;20246;-53
2022/08/28 09:14:09;;;;;;;8.35;7.53;;;25.70;99.90;;;;;;5064593;28;20315;-52
2022/08/28 09:16:39;;;;;;;9.30;8.50;;;25.50;99.90;;;;;;5070559;28;20217;-53
2022/08/28 09:19:09;;;;;;;9.40;8.63;;;25.50;99.90;;;;;;5062560;28;20197;-52
2022/08/28 09:21:41;;;;;;;9.43;8.53;;;24.90;99.90;;;;;;5068217;28;20220;-52
2022/08/28 09:24:16;;;;;;;7.93;7.23;;;24.70;99.90;;;;;;5071719;28;20193;-53
2022/08/28 09:26:52;;;;;;;8.97;8.37;;;25.30;99.90;;;;;;5070073;28;20232;-52
2022/08/28 09:29:23;;;;;;;8.20;7.60;;;25.60;99.90;;;;;;5064773;28;20250;-52
2022/08/28 09:31:50;;;;;;;8.40;7.80;;;25.60;99.90;;;;;;5071536;28;20220;-52
2022/08/28 09:34:24;;;;;;;7.57;7.07;;;26.20;99.90;;;;;;5071501;28;20213;-53
2022/08/28 09:36:52;;;;;;;8.03;7.43;;;26.70;99.90;;;;;;5071455;28;20309;-52
2022/08/28 09:39:23;;;;;;;7.93;7.43;;;26.70;99.90;;;;;;5070766;28;20279;-53
2022/08/28 09:44:55;;;;;;;7.63;7.13;;;26.00;99.90;;;;;;5066736;28;20196;-52
2022/08/28 09:47:49;;;;;;;8.80;8.10;;;26.40;99.90;;;;;;5069950;28;20213;-53
2022/08/28 09:50:30;;;;;;;9.48;8.77;;;27.10;99.90;;;;;;5044018;28;20201;-53
2022/08/28 09:52:59;;;;;;;8.80;8.20;;;26.20;99.90;;;;;;5070034;28;20226;-52
2022/08/28 09:55:46;;;;;;;7.93;7.43;;;25.30;99.90;;;;;;5066066;28;20217;-52
2022/08/28 09:58:15;;;;;;;8.43;7.80;;;26.10;99.90;;;;;;5064530;28;20261;-53
2022/08/28 10:00:51;;;;;;;8.20;7.63;;;25.80;99.90;;;;;;5069546;28;20221;-53
2022/08/28 10:03:25;;;;;;;8.50;7.60;;;26.20;99.90;;;;;;5070500;28;20196;-52
2022/08/28 10:06:02;;;;;;;8.33;7.73;;;26.00;99.90;;;;;;5066479;28;20227;-52
2022/08/28 10:08:42;;;;;;;8.00;7.50;;;25.80;99.90;;;;;;5071388;28;20201;-52
2022/08/28 10:11:20;;;;;;;7.73;7.17;;;25.50;99.90;;;;;;5064597;28;20205;-53
2022/08/28 10:13:55;;;;;;;8.50;7.70;;;25.50;99.90;;;;;;5061705;28;20316;-52
2022/08/28 10:16:33;;;;;;;7.28;6.82;;;26.30;99.90;;;;;;5059994;28;20217;-53
2022/08/28 10:19:05;;;;;;;8.93;8.27;;;27.40;99.90;;;;;;5054962;28;20570;-52
2022/08/28 10:21:39;;;;;;;8.38;7.78;;;27.70;99.90;;;;;;5060898;28;20292;-54
2022/08/28 10:24:26;;;;;;;7.40;7.00;;;27.60;99.90;;;;;;5055341;28;20729;-52
2022/08/28 10:27:06;;;;;;;7.75;7.20;;;27.90;99.90;;;;;;5050920;28;20229;-53
2022/08/28 10:29:44;;;;;;;7.35;6.85;;;27.80;99.90;;;;;;5051714;28;20228;-53
2022/08/28 10:32:23;;;;;;;8.20;7.63;;;28.30;99.90;;;;;;5056006;28;20200;-53
2022/08/28 10:35:00;;;;;;;8.02;7.43;;;28.50;99.90;;;;;;5060226;28;20225;-53
2022/08/28 10:37:43;;;;;;;7.25;6.80;;;28.60;99.90;;;;;;5068663;28;20216;-53
2022/08/28 10:40:15;;;;;;;8.90;8.18;;;28.80;99.90;;;;;;5069463;28;20542;-53
2022/08/28 10:42:49;;;;;;;6.93;6.35;;;28.70;99.90;;;;;;5065174;28;20247;-52
2022/08/28 10:45:18;;;;;;;6.30;5.90;;;28.50;99.90;;;;;;5053812;28;20197;-52
2022/08/28 10:47:51;;;;;;;8.30;7.65;;;28.40;99.90;;;;;;5052996;28;20213;-53
2022/08/28 10:50:24;;;;;;;6.43;5.93;;;28.00;99.90;;;;;;5057275;28;20197;-53
2022/08/28 10:52:57;;;;;;;6.97;6.57;;;28.10;99.90;;;;;;5057283;28;20197;-53
2022/08/28 10:55:28;;;;;;;6.22;5.80;;;28.10;99.90;;;;;;5070760;28;20304;-53
2022/08/28 10:58:01;;;;;;;7.32;6.82;;;27.40;99.90;;;;;;5065489;28;20244;-52
2022/08/28 11:00:28;;;;;;;7.63;7.03;;;26.60;99.90;;;;;;5049595;28;20543;-53
2022/08/28 11:02:59;;;;;;;7.25;6.75;;;26.50;99.90;;;;;;5064276;28;20667;-52
2022/08/28 11:05:30;;;;;;;6.25;5.75;;;26.00;99.90;;;;;;5070743;28;20835;-53
2022/08/28 11:08:00;;;;;;;6.50;5.80;;;26.20;99.90;;;;;;5070854;28;20227;-53
2022/08/28 11:10:49;;;;;;;7.38;6.97;;;26.40;99.90;;;;;;5059543;28;20225;-53
2022/08/28 11:13:47;;;;;;;6.32;5.82;;;26.40;99.90;;;;;;5067115;28;20284;-53
2022/08/28 11:16:21;;;;;;;6.17;5.67;;;26.50;99.90;;;;;;5070932;28;20217;-53
2022/08/28 11:19:17;;;;;;;6.47;5.90;;;26.30;99.90;;;;;;5063486;28;20235;-52
2022/08/28 11:21:50;;;;;;;6.53;6.13;;;26.10;99.90;;;;;;5073803;28;20209;-52
2022/08/28 11:24:42;;;;;;;6.37;5.97;;;25.90;99.90;;;;;;5073168;28;20596;-52
2022/08/28 11:27:20;;;;;;;5.87;5.57;;;25.80;99.90;;;;;;5054749;28;20572;-53
2022/08/28 11:30:33;;;;;;;5.93;5.63;;;25.90;99.90;;;;;;5054791;28;20252;-53
2022/08/28 11:33:38;;;;;;;6.80;6.30;;;25.90;99.90;;;;;;5068382;28;20193;-53
2022/08/28 11:36:10;;;;;;;5.67;5.17;;;26.00;99.90;;;;;;5054223;28;20220;-52
2022/08/28 11:39:04;;;;;;;6.30;6.00;;;26.00;99.90;;;;;;5074581;28;20196;-52
2022/08/28 11:41:34;;;;;;;5.70;5.40;;;25.70;99.90;;;;;;5073686;28;20216;-53
2022/08/28 11:44:39;;;;;;;6.47;6.15;;;25.70;99.90;;;;;;5069748;28;20197;-53
2022/08/28 11:47:48;;;;;;;6.30;5.90;;;26.00;99.90;;;;;;5066651;28;20224;-53
2022/08/28 11:50:28;;;;;;;6.22;5.93;;;25.80;99.90;;;;;;5068947;28;20201;-53
2022/08/28 11:53:28;;;;;;;6.15;5.80;;;25.80;99.90;;;;;;5072483;28;20205;-52
2022/08/28 11:56:06;;;;;;;6.30;6.00;;;25.80;99.90;;;;;;5063242;28;20225;-53
2022/08/28 11:58:41;;;;;;;6.97;6.57;;;25.80;99.90;;;;;;5074474;28;20221;-53
2022/08/28 12:01:10;;;;;;;6.87;6.37;;;25.90;99.90;;;;;;5074419;28;20207;-52
2022/08/28 12:03:42;;;;;;;6.67;6.23;;;25.90;99.90;;;;;;5070981;28;20197;-53
2022/08/28 12:06:12;;;;;;;7.23;6.80;;;25.90;99.90;;;;;;5069192;28;20225;-52
2022/08/28 12:09:11;;;;;;;7.25;6.65;;;25.70;99.90;;;;;;5061388;28;20202;-53
2022/08/28 12:12:10;;;;;;;7.57;7.07;;;25.70;99.90;;;;;;5056744;28;20784;-52
2022/08/28 12:15:08;;;;;;;6.93;6.23;;;25.60;99.90;;;;;;5063023;28;20209;-52
2022/08/28 12:17:47;;;;;;;8.97;8.30;;;25.50;99.90;;;;;;5056618;28;20581;-52
2022/08/28 12:20:23;;;;;;;7.43;6.97;;;25.50;99.90;;;;;;5071095;28;20201;-51
2022/08/28 12:22:54;;;;;;;7.23;6.83;;;25.20;99.90;;;;;;5063862;28;20209;-52
2022/08/28 12:25:33;;;;;;;7.40;6.90;;;25.10;99.90;;;;;;5054556;28;20571;-52
2022/08/28 12:28:04;;;;;;;6.27;5.77;;;25.10;99.90;;;;;;5062075;28;20205;-52
2022/08/28 12:30:39;;;;;;;7.60;6.90;;;25.10;99.90;;;;;;5066005;28;20245;-52
2022/08/28 12:33:20;;;;;;;6.57;6.13;;;25.10;99.90;;;;;;5059948;28;20266;-52
2022/08/28 12:35:49;;;;;;;5.70;5.40;;;25.00;99.90;;;;;;5056427;28;20229;-52
2022/08/28 12:38:39;;;;;;;5.63;5.40;;;24.90;99.90;;;;;;5053098;28;20225;-52
2022/08/28 12:41:15;;;;;;;4.83;4.63;;;25.00;99.90;;;;;;5053286;28;20260;-52
2022/08/28 12:43:46;;;;;;;5.33;5.07;;;25.10;99.90;;;;;;5071675;28;20280;-52
2022/08/28 12:46:19;;;;;;;5.10;4.77;;;25.00;99.90;;;;;;5060357;28;20650;-53
2022/08/28 12:48:50;;;;;;;4.93;4.73;;;25.00;99.90;;;;;;5052907;28;20205;-52
2022/08/28 12:51:21;;;;;;;4.47;4.17;;;25.00;99.90;;;;;;5053951;28;20209;-52
2022/08/28 12:53:53;;;;;;;3.93;3.73;;;25.20;99.90;;;;;;5058061;28;20315;-52
2022/08/28 12:56:22;;;;;;;3.87;3.67;;;25.10;99.90;;;;;;5052641;28;20588;-52
2022/08/28 12:58:50;;;;;;;3.60;3.47;;;25.10;99.90;;;;;;5052497;28;20213;-52
2022/08/28 13:01:29;;;;;;;4.20;3.90;;;25.20;99.90;;;;;;5052746;28;20243;-52
2022/08/28 13:03:59;;;;;;;4.13;3.60;;;25.30;99.90;;;;;;5060300;28;20345;-52
2022/08/28 13:06:29;;;;;;;3.60;3.43;;;25.30;99.90;;;;;;5052410;28;20308;-52